sensor_id;sensor_type;location;lat;lon;timestamp;temperature;humidity
5286;DHT22;2665;53.112;7.358;2024-02-23T00:01:43;4.70;99.90
5286;DHT22;2665;53.112;7.358;2024-02-23T00:04:09;4.60;99.90
5286;DHT22;2665;53.112;7.358;2024-02-23T00:06:35;4.60;99.90
5286;DHT22;2665;53.112;7.358;2024-02-23T00:09:01;4.50;99.90
5286;DHT22;2665;53.112;7.358;2024-02-23T00:11:27;4.60;99.90
5286;DHT22;2665;53.112;7.358;2024-02-23T00:13:54;4.60;99.90
5286;DHT22;2665;53.112;7.358;2024-02-23T00:16:19;4.50;99.90
5286;DHT22;2665;53.112;7.358;2024-02-23T00:18:45;4.50;99.90
5286;DHT22;2665;53.112;7.358;2024-02-23T00:21:11;4.40;99.90
5286;DHT22;2665;53.112;7.358;2024-02-23T00:23:37;4.50;99.90
5286;DHT22;2665;53.112;7.358;2024-02-23T00:26:03;4.40;99.90
5286;DHT22;2665;53.112;7.358;2024-02-23T00:28:28;4.50;99.90
5286;DHT22;2665;53.112;7.358;2024-02-23T00:30:54;4.40;99.90
5286;DHT22;2665;53.112;7.358;2024-02-23T00:33:20;4.40;99.90
5286;DHT22;2665;53.112;7.358;2024-02-23T00:35:45;4.30;99.90
5286;DHT22;2665;53.112;7.358;2024-02-23T00:38:11;4.30;99.90
5286;DHT22;2665;53.112;7.358;2024-02-23T00:40:37;4.40;99.90
5286;DHT22;2665;53.112;7.358;2024-02-23T00:43:04;4.30;99.90
5286;DHT22;2665;53.112;7.358;2024-02-23T00:45:29;4.40;99.90
5286;DHT22;2665;53.112;7.358;2024-02-23T00:47:55;4.40;99.90
5286;DHT22;2665;53.112;7.358;2024-02-23T00:50:22;4.50;99.90
5286;DHT22;2665;53.112;7.358;2024-02-23T00:52:51;4.50;99.90
5286;DHT22;2665;53.112;7.358;2024-02-23T00:55:17;4.60;99.90
5286;DHT22;2665;53.112;7.358;2024-02-23T00:57:43;4.60;99.90
5286;DHT22;2665;53.112;7.358;2024-02-23T01:00:09;4.60;99.90
5286;DHT22;2665;53.112;7.358;2024-02-23T01:02:35;4.60;99.90
5286;DHT22;2665;53.112;7.358;2024-02-23T01:05:01;4.60;99.90
5286;DHT22;2665;53.112;7.358;2024-02-23T01:07:27;4.60;99.90
5286;DHT22;2665;53.112;7.358;2024-02-23T01:09:53;4.60;99.90
5286;DHT22;2665;53.112;7.358;2024-02-23T01:12:19;4.60;99.90
5286;DHT22;2665;53.112;7.358;2024-02-23T01:14:44;4.70;99.90
5286;DHT22;2665;53.112;7.358;2024-02-23T01:17:10;4.70;99.90
5286;DHT22;2665;53.112;7.358;2024-02-23T01:19:36;4.70;99.90
5286;DHT22;2665;53.112;7.358;2024-02-23T01:22:01;4.70;97.90
5286;DHT22;2665;53.112;7.358;2024-02-23T01:24:27;4.60;96.30
5286;DHT22;2665;53.112;7.358;2024-02-23T01:26:55;4.50;96.10
5286;DHT22;2665;53.112;7.358;2024-02-23T01:29:22;4.50;96.80
5286;DHT22;2665;53.112;7.358;2024-02-23T01:31:48;4.50;95.70
5286;DHT22;2665;53.112;7.358;2024-02-23T01:34:14;4.40;88.60
5286;DHT22;2665;53.112;7.358;2024-02-23T01:36:40;4.20;80.10
5286;DHT22;2665;53.112;7.358;2024-02-23T01:39:05;4.10;74.50
5286;DHT22;2665;53.112;7.358;2024-02-23T01:41:32;3.90;62.60
5286;DHT22;2665;53.112;7.358;2024-02-23T01:43:58;3.70;64.60
5286;DHT22;2665;53.112;7.358;2024-02-23T01:46:24;3.30;66.60
5286;DHT22;2665;53.112;7.358;2024-02-23T01:48:49;3.20;91.20
5286;DHT22;2665;53.112;7.358;2024-02-23T01:51:16;3.10;99.90
5286;DHT22;2665;53.112;7.358;2024-02-23T01:53:42;3.10;99.90
5286;DHT22;2665;53.112;7.358;2024-02-23T01:56:08;3.20;99.90
5286;DHT22;2665;53.112;7.358;2024-02-23T01:58:35;3.20;99.90
5286;DHT22;2665;53.112;7.358;2024-02-23T02:01:02;3.30;99.90
5286;DHT22;2665;53.112;7.358;2024-02-23T02:03:28;3.30;99.90
5286;DHT22;2665;53.112;7.358;2024-02-23T02:05:55;3.30;99.90
5286;DHT22;2665;53.112;7.358;2024-02-23T02:08:25;3.30;99.90
5286;DHT22;2665;53.112;7.358;2024-02-23T02:10:50;3.40;99.90
5286;DHT22;2665;53.112;7.358;2024-02-23T02:13:16;3.40;99.90
5286;DHT22;2665;53.112;7.358;2024-02-23T02:15:42;3.50;99.90
5286;DHT22;2665;53.112;7.358;2024-02-23T02:18:10;3.60;99.90
5286;DHT22;2665;53.112;7.358;2024-02-23T02:20:36;3.70;99.90
5286;DHT22;2665;53.112;7.358;2024-02-23T02:23:03;3.70;99.90
5286;DHT22;2665;53.112;7.358;2024-02-23T02:25:28;3.80;99.90
5286;DHT22;2665;53.112;7.358;2024-02-23T02:27:54;3.80;99.90
5286;DHT22;2665;53.112;7.358;2024-02-23T02:30:20;3.80;99.90
5286;DHT22;2665;53.112;7.358;2024-02-23T02:32:46;3.90;99.90
5286;DHT22;2665;53.112;7.358;2024-02-23T02:35:11;3.90;99.90
5286;DHT22;2665;53.112;7.358;2024-02-23T02:37:38;3.90;99.90
5286;DHT22;2665;53.112;7.358;2024-02-23T02:40:04;4.00;99.90
5286;DHT22;2665;53.112;7.358;2024-02-23T02:42:30;4.10;99.90
5286;DHT22;2665;53.112;7.358;2024-02-23T02:44:56;4.20;99.90
5286;DHT22;2665;53.112;7.358;2024-02-23T02:47:22;4.20;99.90
5286;DHT22;2665;53.112;7.358;2024-02-23T02:49:48;4.30;99.90
5286;DHT22;2665;53.112;7.358;2024-02-23T02:52:14;4.30;99.90
5286;DHT22;2665;53.112;7.358;2024-02-23T02:54:39;4.40;99.90
5286;DHT22;2665;53.112;7.358;2024-02-23T02:57:05;4.40;99.90
5286;DHT22;2665;53.112;7.358;2024-02-23T02:59:34;4.40;99.90
5286;DHT22;2665;53.112;7.358;2024-02-23T03:02:01;4.50;99.90
5286;DHT22;2665;53.112;7.358;2024-02-23T03:04:26;4.60;99.90
5286;DHT22;2665;53.112;7.358;2024-02-23T03:06:52;4.60;99.90
5286;DHT22;2665;53.112;7.358;2024-02-23T03:09:18;4.60;99.60
5286;DHT22;2665;53.112;7.358;2024-02-23T03:11:43;4.60;99.80
5286;DHT22;2665;53.112;7.358;2024-02-23T03:14:09;4.60;99.90
5286;DHT22;2665;53.112;7.358;2024-02-23T03:16:35;4.70;99.90
5286;DHT22;2665;53.112;7.358;2024-02-23T03:19:03;4.70;99.90
5286;DHT22;2665;53.112;7.358;2024-02-23T03:21:28;4.70;98.20
5286;DHT22;2665;53.112;7.358;2024-02-23T03:23:54;4.50;94.80
5286;DHT22;2665;53.112;7.358;2024-02-23T03:26:20;4.40;99.90
5286;DHT22;2665;53.112;7.358;2024-02-23T03:28:46;4.40;99.90
5286;DHT22;2665;53.112;7.358;2024-02-23T03:31:11;4.30;99.90
5286;DHT22;2665;53.112;7.358;2024-02-23T03:33:37;4.30;99.90
5286;DHT22;2665;53.112;7.358;2024-02-23T03:36:03;4.20;99.90
5286;DHT22;2665;53.112;7.358;2024-02-23T03:38:29;4.20;99.90
5286;DHT22;2665;53.112;7.358;2024-02-23T03:40:55;4.20;99.90
5286;DHT22;2665;53.112;7.358;2024-02-23T03:43:21;4.30;99.90
5286;DHT22;2665;53.112;7.358;2024-02-23T03:45:47;4.30;99.90
5286;DHT22;2665;53.112;7.358;2024-02-23T03:48:13;4.30;99.90
5286;DHT22;2665;53.112;7.358;2024-02-23T03:50:38;4.40;99.90
5286;DHT22;2665;53.112;7.358;2024-02-23T03:53:04;4.40;99.90
5286;DHT22;2665;53.112;7.358;2024-02-23T03:55:30;4.40;99.90
5286;DHT22;2665;53.112;7.358;2024-02-23T03:57:55;4.40;99.90
5286;DHT22;2665;53.112;7.358;2024-02-23T04:00:21;4.50;99.90
5286;DHT22;2665;53.112;7.358;2024-02-23T04:02:49;4.40;99.90
5286;DHT22;2665;53.112;7.358;2024-02-23T04:05:14;4.40;99.90
5286;DHT22;2665;53.112;7.358;2024-02-23T04:07:40;4.30;99.90
5286;DHT22;2665;53.112;7.358;2024-02-23T04:10:06;4.30;99.90
5286;DHT22;2665;53.112;7.358;2024-02-23T04:12:32;4.30;99.90
5286;DHT22;2665;53.112;7.358;2024-02-23T04:14:58;4.30;99.90
5286;DHT22;2665;53.112;7.358;2024-02-23T04:17:23;4.20;99.90
5286;DHT22;2665;53.112;7.358;2024-02-23T04:19:49;4.20;99.90
5286;DHT22;2665;53.112;7.358;2024-02-23T04:22:15;4.20;99.90
5286;DHT22;2665;53.112;7.358;2024-02-23T04:24:41;4.20;99.90
5286;DHT22;2665;53.112;7.358;2024-02-23T04:27:07;4.20;99.90
5286;DHT22;2665;53.112;7.358;2024-02-23T04:29:34;4.20;99.90
5286;DHT22;2665;53.112;7.358;2024-02-23T04:32:02;4.20;98.90
5286;DHT22;2665;53.112;7.358;2024-02-23T04:34:28;4.20;95.50
5286;DHT22;2665;53.112;7.358;2024-02-23T04:36:54;4.20;92.30
5286;DHT22;2665;53.112;7.358;2024-02-23T04:39:20;4.30;86.40
5286;DHT22;2665;53.112;7.358;2024-02-23T04:41:46;4.30;78.10
5286;DHT22;2665;53.112;7.358;2024-02-23T04:44:12;4.20;70.80
5286;DHT22;2665;53.112;7.358;2024-02-23T04:46:37;4.20;64.50
5286;DHT22;2665;53.112;7.358;2024-02-23T04:49:03;4.30;55.50
5286;DHT22;2665;53.112;7.358;2024-02-23T04:51:29;4.30;46.80
5286;DHT22;2665;53.112;7.358;2024-02-23T04:53:55;4.30;36.90
5286;DHT22;2665;53.112;7.358;2024-02-23T04:56:20;4.30;27.10
5286;DHT22;2665;53.112;7.358;2024-02-23T04:58:46;4.30;17.30
5286;DHT22;2665;53.112;7.358;2024-02-23T05:01:12;4.20;13.60
5286;DHT22;2665;53.112;7.358;2024-02-23T05:03:38;4.30;13.80
5286;DHT22;2665;53.112;7.358;2024-02-23T05:06:04;4.20;11.10
5286;DHT22;2665;53.112;7.358;2024-02-23T05:08:30;4.30;7.90
5286;DHT22;2665;53.112;7.358;2024-02-23T05:10:56;4.30;3.80
5286;DHT22;2665;53.112;7.358;2024-02-23T05:13:22;4.30;1.00
5286;DHT22;2665;53.112;7.358;2024-02-23T05:15:48;4.30;1.00
5286;DHT22;2665;53.112;7.358;2024-02-23T05:18:14;4.30;1.00
5286;DHT22;2665;53.112;7.358;2024-02-23T05:20:39;4.30;1.00
5286;DHT22;2665;53.112;7.358;2024-02-23T05:23:05;4.30;1.00
5286;DHT22;2665;53.112;7.358;2024-02-23T05:25:31;4.30;1.00
5286;DHT22;2665;53.112;7.358;2024-02-23T05:27:56;4.30;1.00
5286;DHT22;2665;53.112;7.358;2024-02-23T05:30:22;4.30;1.00
5286;DHT22;2665;53.112;7.358;2024-02-23T05:32:48;4.40;1.00
5286;DHT22;2665;53.112;7.358;2024-02-23T05:35:15;4.40;1.00
5286;DHT22;2665;53.112;7.358;2024-02-23T05:37:41;4.50;1.00
5286;DHT22;2665;53.112;7.358;2024-02-23T05:40:07;4.50;1.00
5286;DHT22;2665;53.112;7.358;2024-02-23T05:42:39;4.50;1.00
5286;DHT22;2665;53.112;7.358;2024-02-23T05:45:06;4.60;1.00
5286;DHT22;2665;53.112;7.358;2024-02-23T05:47:38;4.60;1.00
5286;DHT22;2665;53.112;7.358;2024-02-23T05:50:04;4.60;1.00
5286;DHT22;2665;53.112;7.358;2024-02-23T05:52:33;4.60;1.00
5286;DHT22;2665;53.112;7.358;2024-02-23T05:55:00;4.70;1.00
5286;DHT22;2665;53.112;7.358;2024-02-23T05:57:28;4.60;1.00
5286;DHT22;2665;53.112;7.358;2024-02-23T05:59:55;4.70;1.00
5286;DHT22;2665;53.112;7.358;2024-02-23T06:02:24;4.70;1.00
5286;DHT22;2665;53.112;7.358;2024-02-23T06:04:49;4.70;1.00
5286;DHT22;2665;53.112;7.358;2024-02-23T06:07:15;4.70;1.00
5286;DHT22;2665;53.112;7.358;2024-02-23T06:09:44;4.70;7.00
5286;DHT22;2665;53.112;7.358;2024-02-23T06:12:10;4.70;14.50
5286;DHT22;2665;53.112;7.358;2024-02-23T06:14:35;4.80;16.40
5286;DHT22;2665;53.112;7.358;2024-02-23T06:17:01;4.80;1.00
5286;DHT22;2665;53.112;7.358;2024-02-23T06:19:28;4.90;1.00
5286;DHT22;2665;53.112;7.358;2024-02-23T06:21:54;4.90;1.00
5286;DHT22;2665;53.112;7.358;2024-02-23T06:24:19;4.90;1.00
5286;DHT22;2665;53.112;7.358;2024-02-23T06:26:46;4.90;1.00
5286;DHT22;2665;53.112;7.358;2024-02-23T06:29:12;4.80;1.00
5286;DHT22;2665;53.112;7.358;2024-02-23T06:31:39;4.80;1.00
5286;DHT22;2665;53.112;7.358;2024-02-23T06:34:05;4.80;1.00
5286;DHT22;2665;53.112;7.358;2024-02-23T06:36:31;4.80;1.00
5286;DHT22;2665;53.112;7.358;2024-02-23T06:38:57;4.80;1.00
5286;DHT22;2665;53.112;7.358;2024-02-23T06:41:22;4.70;1.00
5286;DHT22;2665;53.112;7.358;2024-02-23T06:43:48;4.70;1.00
5286;DHT22;2665;53.112;7.358;2024-02-23T06:46:14;4.70;1.00
5286;DHT22;2665;53.112;7.358;2024-02-23T06:48:39;4.70;1.00
5286;DHT22;2665;53.112;7.358;2024-02-23T06:51:06;4.70;1.00
5286;DHT22;2665;53.112;7.358;2024-02-23T06:53:35;4.70;1.00
5286;DHT22;2665;53.112;7.358;2024-02-23T06:56:00;4.60;1.00
5286;DHT22;2665;53.112;7.358;2024-02-23T06:58:26;4.60;1.00
5286;DHT22;2665;53.112;7.358;2024-02-23T07:00:52;4.60;1.00
5286;DHT22;2665;53.112;7.358;2024-02-23T07:03:18;4.70;1.00
5286;DHT22;2665;53.112;7.358;2024-02-23T07:05:44;4.70;1.00
5286;DHT22;2665;53.112;7.358;2024-02-23T07:08:11;4.80;1.00
5286;DHT22;2665;53.112;7.358;2024-02-23T07:10:36;4.80;1.00
5286;DHT22;2665;53.112;7.358;2024-02-23T07:13:02;4.90;1.00
5286;DHT22;2665;53.112;7.358;2024-02-23T07:15:28;4.90;1.00
5286;DHT22;2665;53.112;7.358;2024-02-23T07:17:55;5.00;1.00
5286;DHT22;2665;53.112;7.358;2024-02-23T07:20:22;5.10;1.00
5286;DHT22;2665;53.112;7.358;2024-02-23T07:22:48;5.10;1.00
5286;DHT22;2665;53.112;7.358;2024-02-23T07:25:17;5.10;1.00
5286;DHT22;2665;53.112;7.358;2024-02-23T07:27:43;5.20;1.00
5286;DHT22;2665;53.112;7.358;2024-02-23T07:30:10;5.20;99.90
5286;DHT22;2665;53.112;7.358;2024-02-23T07:32:36;5.20;99.90
5286;DHT22;2665;53.112;7.358;2024-02-23T07:35:01;5.30;99.90
5286;DHT22;2665;53.112;7.358;2024-02-23T07:37:29;5.30;99.90
5286;DHT22;2665;53.112;7.358;2024-02-23T07:39:55;5.30;99.90
5286;DHT22;2665;53.112;7.358;2024-02-23T07:42:20;5.40;99.90
5286;DHT22;2665;53.112;7.358;2024-02-23T07:44:46;5.40;99.90
5286;DHT22;2665;53.112;7.358;2024-02-23T07:47:12;5.40;99.90
5286;DHT22;2665;53.112;7.358;2024-02-23T07:49:38;5.40;99.90
5286;DHT22;2665;53.112;7.358;2024-02-23T07:52:06;5.50;27.60
5286;DHT22;2665;53.112;7.358;2024-02-23T07:54:32;5.50;1.00
5286;DHT22;2665;53.112;7.358;2024-02-23T07:56:58;5.60;99.90
5286;DHT22;2665;53.112;7.358;2024-02-23T07:59:24;5.60;99.90
5286;DHT22;2665;53.112;7.358;2024-02-23T08:01:50;5.60;1.00
5286;DHT22;2665;53.112;7.358;2024-02-23T08:04:15;5.70;66.40
5286;DHT22;2665;53.112;7.358;2024-02-23T08:06:41;5.70;1.00
5286;DHT22;2665;53.112;7.358;2024-02-23T08:09:08;5.70;99.90
5286;DHT22;2665;53.112;7.358;2024-02-23T08:11:34;5.70;99.90
5286;DHT22;2665;53.112;7.358;2024-02-23T08:14:01;5.70;1.00
5286;DHT22;2665;53.112;7.358;2024-02-23T08:16:28;5.70;99.90
5286;DHT22;2665;53.112;7.358;2024-02-23T08:18:54;5.80;99.90
5286;DHT22;2665;53.112;7.358;2024-02-23T08:21:19;5.80;99.90
5286;DHT22;2665;53.112;7.358;2024-02-23T08:23:45;5.90;1.00
5286;DHT22;2665;53.112;7.358;2024-02-23T08:26:11;5.90;99.90
5286;DHT22;2665;53.112;7.358;2024-02-23T08:28:37;5.90;99.90
5286;DHT22;2665;53.112;7.358;2024-02-23T08:31:02;6.00;1.00
5286;DHT22;2665;53.112;7.358;2024-02-23T08:33:28;6.00;1.00
5286;DHT22;2665;53.112;7.358;2024-02-23T08:35:54;6.10;1.00
5286;DHT22;2665;53.112;7.358;2024-02-23T08:38:20;6.10;99.90
5286;DHT22;2665;53.112;7.358;2024-02-23T08:40:45;6.20;99.90
5286;DHT22;2665;53.112;7.358;2024-02-23T08:43:13;6.20;1.00
5286;DHT22;2665;53.112;7.358;2024-02-23T08:45:39;6.20;1.00
5286;DHT22;2665;53.112;7.358;2024-02-23T08:48:04;6.20;1.00
5286;DHT22;2665;53.112;7.358;2024-02-23T08:50:30;6.30;1.00
5286;DHT22;2665;53.112;7.358;2024-02-23T08:52:56;6.30;99.90
5286;DHT22;2665;53.112;7.358;2024-02-23T08:55:21;6.30;99.90
5286;DHT22;2665;53.112;7.358;2024-02-23T08:57:47;6.40;1.00
5286;DHT22;2665;53.112;7.358;2024-02-23T09:00:14;6.40;1.00
5286;DHT22;2665;53.112;7.358;2024-02-23T09:02:40;6.50;1.00
5286;DHT22;2665;53.112;7.358;2024-02-23T09:05:08;6.50;99.90
5286;DHT22;2665;53.112;7.358;2024-02-23T09:07:34;6.50;99.90
5286;DHT22;2665;53.112;7.358;2024-02-23T09:10:00;6.50;99.90
5286;DHT22;2665;53.112;7.358;2024-02-23T09:12:25;6.50;99.90
5286;DHT22;2665;53.112;7.358;2024-02-23T09:14:51;6.60;99.90
5286;DHT22;2665;53.112;7.358;2024-02-23T09:17:17;6.60;99.90
5286;DHT22;2665;53.112;7.358;2024-02-23T09:19:44;6.60;1.00
5286;DHT22;2665;53.112;7.358;2024-02-23T09:22:10;6.60;1.00
5286;DHT22;2665;53.112;7.358;2024-02-23T09:24:39;6.70;1.00
5286;DHT22;2665;53.112;7.358;2024-02-23T09:27:05;6.80;1.00
5286;DHT22;2665;53.112;7.358;2024-02-23T09:29:32;6.80;99.90
5286;DHT22;2665;53.112;7.358;2024-02-23T09:31:58;6.80;99.90
5286;DHT22;2665;53.112;7.358;2024-02-23T09:34:24;6.90;99.90
5286;DHT22;2665;53.112;7.358;2024-02-23T09:36:50;7.00;1.00
5286;DHT22;2665;53.112;7.358;2024-02-23T09:39:16;7.10;1.00
5286;DHT22;2665;53.112;7.358;2024-02-23T09:41:42;7.20;1.00
5286;DHT22;2665;53.112;7.358;2024-02-23T09:44:08;7.30;1.00
5286;DHT22;2665;53.112;7.358;2024-02-23T09:46:36;7.40;1.00
5286;DHT22;2665;53.112;7.358;2024-02-23T09:49:03;7.40;1.00
5286;DHT22;2665;53.112;7.358;2024-02-23T09:51:29;7.40;99.90
5286;DHT22;2665;53.112;7.358;2024-02-23T09:53:57;7.40;1.00
5286;DHT22;2665;53.112;7.358;2024-02-23T09:56:26;7.30;1.00
5286;DHT22;2665;53.112;7.358;2024-02-23T09:58:53;7.30;1.00
5286;DHT22;2665;53.112;7.358;2024-02-23T10:01:28;7.30;1.00
5286;DHT22;2665;53.112;7.358;2024-02-23T10:03:57;7.40;1.00
5286;DHT22;2665;53.112;7.358;2024-02-23T10:06:23;7.50;1.00
5286;DHT22;2665;53.112;7.358;2024-02-23T10:08:49;7.50;99.90
5286;DHT22;2665;53.112;7.358;2024-02-23T10:11:18;7.70;1.00
5286;DHT22;2665;53.112;7.358;2024-02-23T10:13:44;7.80;99.90
5286;DHT22;2665;53.112;7.358;2024-02-23T10:16:10;7.70;99.90
5286;DHT22;2665;53.112;7.358;2024-02-23T10:18:38;7.60;99.90
5286;DHT22;2665;53.112;7.358;2024-02-23T10:21:05;7.60;99.90
5286;DHT22;2665;53.112;7.358;2024-02-23T10:23:30;7.60;99.90
5286;DHT22;2665;53.112;7.358;2024-02-23T10:25:56;7.60;99.90
5286;DHT22;2665;53.112;7.358;2024-02-23T10:28:22;7.60;99.90
5286;DHT22;2665;53.112;7.358;2024-02-23T10:30:48;7.60;99.90
5286;DHT22;2665;53.112;7.358;2024-02-23T10:33:14;7.70;99.90
5286;DHT22;2665;53.112;7.358;2024-02-23T10:35:42;7.70;99.90
5286;DHT22;2665;53.112;7.358;2024-02-23T10:38:08;7.70;99.90
5286;DHT22;2665;53.112;7.358;2024-02-23T10:40:39;7.60;99.90
5286;DHT22;2665;53.112;7.358;2024-02-23T10:43:12;7.60;99.90
5286;DHT22;2665;53.112;7.358;2024-02-23T10:45:39;7.60;99.90
5286;DHT22;2665;53.112;7.358;2024-02-23T10:48:07;7.70;99.90
5286;DHT22;2665;53.112;7.358;2024-02-23T10:50:35;7.70;99.90
5286;DHT22;2665;53.112;7.358;2024-02-23T10:53:01;7.70;99.90
5286;DHT22;2665;53.112;7.358;2024-02-23T10:55:30;7.70;99.90
5286;DHT22;2665;53.112;7.358;2024-02-23T10:57:58;7.60;99.90
5286;DHT22;2665;53.112;7.358;2024-02-23T11:00:24;7.60;99.90
5286;DHT22;2665;53.112;7.358;2024-02-23T11:02:53;7.60;99.90
5286;DHT22;2665;53.112;7.358;2024-02-23T11:05:20;7.60;99.90
5286;DHT22;2665;53.112;7.358;2024-02-23T11:07:49;7.60;99.90
5286;DHT22;2665;53.112;7.358;2024-02-23T11:10:15;7.60;99.90
5286;DHT22;2665;53.112;7.358;2024-02-23T11:12:41;7.60;99.90
5286;DHT22;2665;53.112;7.358;2024-02-23T11:15:07;7.60;99.90
5286;DHT22;2665;53.112;7.358;2024-02-23T11:17:36;7.60;99.90
5286;DHT22;2665;53.112;7.358;2024-02-23T11:20:05;7.60;99.90
5286;DHT22;2665;53.112;7.358;2024-02-23T11:22:33;7.60;99.90
5286;DHT22;2665;53.112;7.358;2024-02-23T11:25:07;7.60;99.90
5286;DHT22;2665;53.112;7.358;2024-02-23T11:27:37;7.60;99.90
5286;DHT22;2665;53.112;7.358;2024-02-23T11:30:07;7.60;99.90
5286;DHT22;2665;53.112;7.358;2024-02-23T11:32:47;7.60;99.90
5286;DHT22;2665;53.112;7.358;2024-02-23T11:35:17;7.70;99.90
5286;DHT22;2665;53.112;7.358;2024-02-23T11:37:52;7.80;99.90
5286;DHT22;2665;53.112;7.358;2024-02-23T11:40:25;7.90;99.90
5286;DHT22;2665;53.112;7.358;2024-02-23T11:42:51;8.00;44.80
5286;DHT22;2665;53.112;7.358;2024-02-23T11:45:17;8.00;1.00
5286;DHT22;2665;53.112;7.358;2024-02-23T11:47:43;8.00;46.50
5286;DHT22;2665;53.112;7.358;2024-02-23T11:50:09;7.90;99.90
5286;DHT22;2665;53.112;7.358;2024-02-23T11:52:38;7.70;99.90
5286;DHT22;2665;53.112;7.358;2024-02-23T11:55:05;7.70;99.90
5286;DHT22;2665;53.112;7.358;2024-02-23T11:57:34;7.70;99.90
5286;DHT22;2665;53.112;7.358;2024-02-23T12:00:07;7.70;99.90
5286;DHT22;2665;53.112;7.358;2024-02-23T12:02:35;7.70;99.90
5286;DHT22;2665;53.112;7.358;2024-02-23T12:05:01;7.80;99.90
5286;DHT22;2665;53.112;7.358;2024-02-23T12:07:28;7.80;99.90
5286;DHT22;2665;53.112;7.358;2024-02-23T12:09:55;7.90;99.90
5286;DHT22;2665;53.112;7.358;2024-02-23T12:12:21;7.90;99.90
5286;DHT22;2665;53.112;7.358;2024-02-23T12:14:47;8.00;99.90
5286;DHT22;2665;53.112;7.358;2024-02-23T12:17:13;8.10;99.90
5286;DHT22;2665;53.112;7.358;2024-02-23T12:19:40;8.20;99.90
5286;DHT22;2665;53.112;7.358;2024-02-23T12:22:06;8.30;99.90
5286;DHT22;2665;53.112;7.358;2024-02-23T12:24:32;8.20;99.90
5286;DHT22;2665;53.112;7.358;2024-02-23T12:26:58;8.30;1.00
5286;DHT22;2665;53.112;7.358;2024-02-23T12:29:24;8.20;1.00
5286;DHT22;2665;53.112;7.358;2024-02-23T12:31:49;7.90;99.90
5286;DHT22;2665;53.112;7.358;2024-02-23T12:34:16;7.60;1.00
5286;DHT22;2665;53.112;7.358;2024-02-23T12:37:02;7.40;99.90
5286;DHT22;2665;53.112;7.358;2024-02-23T12:39:28;7.20;99.90
5286;DHT22;2665;53.112;7.358;2024-02-23T12:41:54;6.90;1.00
5286;DHT22;2665;53.112;7.358;2024-02-23T12:44:22;6.50;99.90
5286;DHT22;2665;53.112;7.358;2024-02-23T12:46:47;6.20;99.90
5286;DHT22;2665;53.112;7.358;2024-02-23T12:49:13;6.10;1.00
5286;DHT22;2665;53.112;7.358;2024-02-23T12:51:39;5.90;1.00
5286;DHT22;2665;53.112;7.358;2024-02-23T12:54:05;5.90;1.00
5286;DHT22;2665;53.112;7.358;2024-02-23T12:56:31;6.00;1.00
5286;DHT22;2665;53.112;7.358;2024-02-23T12:58:56;6.10;9.80
5286;DHT22;2665;53.112;7.358;2024-02-23T13:01:22;6.30;17.90
5286;DHT22;2665;53.112;7.358;2024-02-23T13:03:48;6.40;6.20
5286;DHT22;2665;53.112;7.358;2024-02-23T13:06:14;6.40;1.00
5286;DHT22;2665;53.112;7.358;2024-02-23T13:08:40;6.40;1.00
5286;DHT22;2665;53.112;7.358;2024-02-23T13:11:08;6.60;1.00
5286;DHT22;2665;53.112;7.358;2024-02-23T13:13:33;6.70;1.00
5286;DHT22;2665;53.112;7.358;2024-02-23T13:15:59;6.90;1.00
5286;DHT22;2665;53.112;7.358;2024-02-23T13:18:25;6.90;1.00
5286;DHT22;2665;53.112;7.358;2024-02-23T13:20:51;6.90;1.00
5286;DHT22;2665;53.112;7.358;2024-02-23T13:23:17;6.90;1.00
5286;DHT22;2665;53.112;7.358;2024-02-23T13:25:44;6.90;1.00
5286;DHT22;2665;53.112;7.358;2024-02-23T13:28:10;7.20;1.00
5286;DHT22;2665;53.112;7.358;2024-02-23T13:30:36;7.10;1.00
5286;DHT22;2665;53.112;7.358;2024-02-23T13:33:02;7.10;1.00
5286;DHT22;2665;53.112;7.358;2024-02-23T13:35:28;7.00;1.00
5286;DHT22;2665;53.112;7.358;2024-02-23T13:37:54;7.10;1.00
5286;DHT22;2665;53.112;7.358;2024-02-23T13:40:20;7.00;1.00
5286;DHT22;2665;53.112;7.358;2024-02-23T13:42:45;6.90;1.00
5286;DHT22;2665;53.112;7.358;2024-02-23T13:45:15;6.90;1.00
5286;DHT22;2665;53.112;7.358;2024-02-23T13:47:41;6.80;1.00
5286;DHT22;2665;53.112;7.358;2024-02-23T13:50:07;6.80;1.00
5286;DHT22;2665;53.112;7.358;2024-02-23T13:52:33;6.70;1.00
5286;DHT22;2665;53.112;7.358;2024-02-23T13:55:00;6.70;1.00
5286;DHT22;2665;53.112;7.358;2024-02-23T13:57:25;6.70;1.00
5286;DHT22;2665;53.112;7.358;2024-02-23T13:59:51;6.70;1.00
5286;DHT22;2665;53.112;7.358;2024-02-23T14:02:24;6.60;1.00
5286;DHT22;2665;53.112;7.358;2024-02-23T14:04:50;6.70;1.00
5286;DHT22;2665;53.112;7.358;2024-02-23T14:07:16;6.70;1.00
5286;DHT22;2665;53.112;7.358;2024-02-23T14:09:43;6.80;1.00
5286;DHT22;2665;53.112;7.358;2024-02-23T14:12:09;6.90;1.00
5286;DHT22;2665;53.112;7.358;2024-02-23T14:14:34;6.90;1.00
5286;DHT22;2665;53.112;7.358;2024-02-23T14:17:00;7.00;1.00
5286;DHT22;2665;53.112;7.358;2024-02-23T14:19:25;7.00;1.00
5286;DHT22;2665;53.112;7.358;2024-02-23T14:21:52;7.50;1.00
5286;DHT22;2665;53.112;7.358;2024-02-23T14:24:17;7.70;1.00
5286;DHT22;2665;53.112;7.358;2024-02-23T14:26:43;7.50;1.00
5286;DHT22;2665;53.112;7.358;2024-02-23T14:29:09;7.40;1.00
5286;DHT22;2665;53.112;7.358;2024-02-23T14:31:34;7.70;1.00
5286;DHT22;2665;53.112;7.358;2024-02-23T14:34:00;7.70;99.90
5286;DHT22;2665;53.112;7.358;2024-02-23T14:36:26;8.00;99.90
5286;DHT22;2665;53.112;7.358;2024-02-23T14:38:52;7.80;1.00
5286;DHT22;2665;53.112;7.358;2024-02-23T14:41:17;7.60;1.00
5286;DHT22;2665;53.112;7.358;2024-02-23T14:43:43;7.40;99.90
5286;DHT22;2665;53.112;7.358;2024-02-23T14:46:09;7.30;1.00
5286;DHT22;2665;53.112;7.358;2024-02-23T14:48:35;7.30;99.90
5286;DHT22;2665;53.112;7.358;2024-02-23T14:51:00;7.20;99.90
5286;DHT22;2665;53.112;7.358;2024-02-23T14:53:29;7.10;99.90
5286;DHT22;2665;53.112;7.358;2024-02-23T14:55:54;7.10;99.90
5286;DHT22;2665;53.112;7.358;2024-02-23T14:58:20;7.20;99.90
5286;DHT22;2665;53.112;7.358;2024-02-23T15:00:46;7.30;1.00
5286;DHT22;2665;53.112;7.358;2024-02-23T15:03:12;7.40;99.90
5286;DHT22;2665;53.112;7.358;2024-02-23T15:05:38;7.40;23.40
5286;DHT22;2665;53.112;7.358;2024-02-23T15:08:04;7.40;99.90
5286;DHT22;2665;53.112;7.358;2024-02-23T15:10:30;7.50;1.00
5286;DHT22;2665;53.112;7.358;2024-02-23T15:12:55;7.50;1.00
5286;DHT22;2665;53.112;7.358;2024-02-23T15:15:21;7.70;1.00
5286;DHT22;2665;53.112;7.358;2024-02-23T15:17:47;7.70;99.90
5286;DHT22;2665;53.112;7.358;2024-02-23T15:20:14;7.90;1.00
5286;DHT22;2665;53.112;7.358;2024-02-23T15:22:40;7.90;1.00
5286;DHT22;2665;53.112;7.358;2024-02-23T15:25:08;7.80;1.00
5286;DHT22;2665;53.112;7.358;2024-02-23T15:27:35;7.80;99.90
5286;DHT22;2665;53.112;7.358;2024-02-23T15:30:01;7.80;99.90
5286;DHT22;2665;53.112;7.358;2024-02-23T15:32:26;7.80;99.90
5286;DHT22;2665;53.112;7.358;2024-02-23T15:34:52;8.10;99.90
5286;DHT22;2665;53.112;7.358;2024-02-23T15:37:18;8.20;99.90
5286;DHT22;2665;53.112;7.358;2024-02-23T15:39:43;8.10;92.50
5286;DHT22;2665;53.112;7.358;2024-02-23T15:42:09;8.00;1.00
5286;DHT22;2665;53.112;7.358;2024-02-23T15:44:35;7.80;1.00
5286;DHT22;2665;53.112;7.358;2024-02-23T15:47:01;7.70;99.90
5286;DHT22;2665;53.112;7.358;2024-02-23T15:49:26;7.50;99.90
5286;DHT22;2665;53.112;7.358;2024-02-23T15:51:52;7.40;23.60
5286;DHT22;2665;53.112;7.358;2024-02-23T15:54:18;7.40;99.90
5286;DHT22;2665;53.112;7.358;2024-02-23T15:56:44;7.40;1.00
5286;DHT22;2665;53.112;7.358;2024-02-23T15:59:09;7.40;1.00
5286;DHT22;2665;53.112;7.358;2024-02-23T16:01:36;7.40;1.00
5286;DHT22;2665;53.112;7.358;2024-02-23T16:04:02;7.40;1.00
5286;DHT22;2665;53.112;7.358;2024-02-23T16:06:28;7.40;1.00
5286;DHT22;2665;53.112;7.358;2024-02-23T16:08:59;7.40;1.00
5286;DHT22;2665;53.112;7.358;2024-02-23T16:11:25;7.30;1.00
5286;DHT22;2665;53.112;7.358;2024-02-23T16:13:52;7.30;99.90
5286;DHT22;2665;53.112;7.358;2024-02-23T16:16:17;7.30;99.90
5286;DHT22;2665;53.112;7.358;2024-02-23T16:18:43;7.30;99.90